Time;durP1;ratioP1;P1;durP2;ratioP2;P2;SDS_P1;SDS_P2;PMS_P1;PMS_P2;Temp;Humidity;BMP_temperature;BMP_pressure;BME280_temperature;BME280_humidity;BME280_pressure;Samples;Min_cycle;Max_cycle;Signal;HPM_P1;HPM_P2
2023/12/11 00:02:10;;;;;;;28.52;5.55;;;17.80;76.80;;;;;;10475260;28;20068;-54
2023/12/11 00:07:12;;;;;;;24.05;4.68;;;17.90;76.90;;;;;;10473317;28;20036;-55
2023/12/11 00:12:15;;;;;;;32.55;6.35;;;17.80;76.90;;;;;;10481052;28;20056;-52
2023/12/11 00:17:18;;;;;;;22.80;5.22;;;17.70;77.20;;;;;;10470831;28;20044;-54
2023/12/11 00:22:20;;;;;;;26.50;5.65;;;17.70;76.90;;;;;;10469729;28;20059;-51
2023/12/11 00:27:23;;;;;;;27.60;6.25;;;17.70;77.20;;;;;;10474969;28;20040;-52
2023/12/11 00:32:25;;;;;;;25.92;7.60;;;17.60;77.30;;;;;;10485603;28;20055;-51
2023/12/11 00:37:27;;;;;;;23.58;4.57;;;17.50;77.50;;;;;;10481487;28;20052;-55
2023/12/11 00:42:31;;;;;;;34.15;5.38;;;17.60;77.70;;;;;;10484464;28;20044;-52
2023/12/11 00:47:33;;;;;;;26.27;5.47;;;17.50;77.70;;;;;;10481108;28;20040;-54
2023/12/11 00:52:35;;;;;;;33.05;5.22;;;17.50;77.60;;;;;;10481648;28;20060;-51
2023/12/11 00:57:38;;;;;;;29.08;5.78;;;17.60;77.70;;;;;;10482584;28;20040;-53
2023/12/11 01:02:42;;;;;;;21.98;4.18;;;17.50;77.80;;;;;;10486076;28;20048;-49
2023/12/11 01:07:44;;;;;;;27.15;4.93;;;17.60;78.00;;;;;;10487906;28;20116;-49
2023/12/11 01:12:47;;;;;;;24.23;5.57;;;17.50;78.00;;;;;;10486567;28;20048;-54
2023/12/11 01:17:49;;;;;;;19.13;5.50;;;17.50;77.90;;;;;;10480710;28;20760;-62
2023/12/11 01:22:51;;;;;;;21.17;4.70;;;17.40;78.00;;;;;;10486989;28;20052;-50
2023/12/11 01:27:55;;;;;;;20.17;4.63;;;17.40;78.10;;;;;;10490521;28;20411;-53
2023/12/11 01:32:57;;;;;;;26.58;4.78;;;17.40;78.00;;;;;;10481942;28;20052;-50
2023/12/11 01:37:59;;;;;;;25.42;5.53;;;17.40;78.30;;;;;;10491778;28;20040;-53
2023/12/11 01:43:13;;;;;;;28.20;5.40;;;17.40;78.20;;;;;;10491678;28;20628;-53
2023/12/11 01:48:16;;;;;;;22.17;4.68;;;17.40;78.30;;;;;;10484326;28;20045;-52
2023/12/11 01:53:18;;;;;;;21.90;4.93;;;17.40;78.40;;;;;;10479831;28;20052;-50
2023/12/11 01:58:24;;;;;;;21.23;5.28;;;17.30;78.40;;;;;;10485431;28;20250;-51
2023/12/11 02:03:26;;;;;;;29.35;4.97;;;17.40;78.20;;;;;;10472683;28;20052;-51
2023/12/11 02:08:28;;;;;;;23.20;4.07;;;17.40;78.20;;;;;;10462000;28;20057;-55
2023/12/11 02:13:32;;;;;;;25.40;5.03;;;17.40;78.40;;;;;;10461691;28;20048;-55
2023/12/11 02:18:34;;;;;;;28.33;5.80;;;17.40;78.30;;;;;;10468360;28;20051;-52
2023/12/11 02:23:42;;;;;;;21.33;4.53;;;17.40;78.20;;;;;;10476612;28;20067;-54
2023/12/11 02:28:46;;;;;;;22.05;4.50;;;17.40;78.30;;;;;;10481147;28;20052;-53
2023/12/11 02:33:48;;;;;;;20.42;4.03;;;17.30;78.40;;;;;;10485151;28;20056;-51
2023/12/11 02:38:50;;;;;;;30.77;4.78;;;17.30;78.40;;;;;;10477817;28;20040;-53
2023/12/11 02:43:53;;;;;;;26.45;4.50;;;17.30;78.50;;;;;;10478077;28;20052;-51
2023/12/11 02:48:55;;;;;;;24.05;4.55;;;17.30;78.30;;;;;;10490021;28;20048;-53
2023/12/11 02:53:58;;;;;;;30.67;5.20;;;17.30;78.40;;;;;;10487247;28;20048;-48
2023/12/11 02:59:01;;;;;;;20.23;4.75;;;17.30;78.50;;;;;;10484261;28;20047;-49
2023/12/11 03:04:03;;;;;;;23.67;5.22;;;17.20;78.60;;;;;;10471351;28;20056;-52
2023/12/11 03:09:05;;;;;;;41.33;5.68;;;17.30;78.70;;;;;;10477324;28;20052;-53
2023/12/11 03:14:09;;;;;;;25.20;5.28;;;17.20;78.80;;;;;;10484742;28;20071;-51
2023/12/11 03:19:11;;;;;;;31.20;5.97;;;17.20;78.90;;;;;;10476207;28;20052;-50
2023/12/11 03:24:13;;;;;;;23.55;5.15;;;17.20;78.90;;;;;;10480179;28;20044;-49
2023/12/11 03:29:16;;;;;;;31.85;5.22;;;17.20;79.00;;;;;;10480062;28;20055;-53
2023/12/11 03:34:19;;;;;;;25.00;5.05;;;17.20;79.20;;;;;;10480596;28;20440;-49
2023/12/11 03:39:21;;;;;;;22.02;5.30;;;17.20;79.10;;;;;;10478613;28;20074;-52
2023/12/11 03:44:24;;;;;;;30.15;5.82;;;17.10;78.90;;;;;;10478517;28;20059;-50
2023/12/11 03:49:27;;;;;;;24.35;5.55;;;17.10;79.00;;;;;;10478016;28;20494;-50
2023/12/11 03:54:28;;;;;;;;;;;17.10;78.90;;;;;;10474596;28;20046;-49
2023/12/11 04:15:31;;;;;;;20.42;4.38;;;17.10;78.60;;;;;;10609658;27;20722;-49
2023/12/11 04:20:33;;;;;;;17.98;4.53;;;17.00;78.90;;;;;;10619638;27;20069;-48
2023/12/11 04:25:35;;;;;;;22.50;4.50;;;17.10;79.20;;;;;;10618615;27;20047;-52
2023/12/11 04:30:39;;;;;;;27.25;4.72;;;17.10;78.90;;;;;;10615804;27;20055;-52
2023/12/11 04:35:41;;;;;;;19.95;4.18;;;17.10;78.90;;;;;;10616149;27;20055;-50
2023/12/11 04:40:43;;;;;;;28.05;4.97;;;17.10;79.00;;;;;;10617583;27;20082;-55
2023/12/11 04:45:49;;;;;;;17.15;3.83;;;17.10;79.30;;;;;;10617471;27;20055;-53
2023/12/11 04:50:51;;;;;;;26.00;4.70;;;17.00;79.30;;;;;;10617378;27;20065;-50
2023/12/11 04:55:52;;;;;;;20.08;4.28;;;17.00;79.10;;;;;;10615586;27;20051;-51
2023/12/11 05:00:56;;;;;;;19.40;4.07;;;17.00;79.20;;;;;;10615292;27;20058;-51
2023/12/11 05:05:58;;;;;;;22.02;4.13;;;16.90;79.20;;;;;;10615576;27;20484;-52
2023/12/11 05:11:00;;;;;;;22.45;4.28;;;17.00;79.20;;;;;;10615563;27;20056;-51
2023/12/11 05:16:04;;;;;;;21.08;4.35;;;17.00;78.90;;;;;;10615419;27;20346;-50
2023/12/11 05:21:07;;;;;;;20.67;4.05;;;17.00;78.90;;;;;;10618507;27;20485;-52
2023/12/11 05:26:09;;;;;;;12.00;2.80;;;17.00;78.90;;;;;;10590598;27;20482;-50
2023/12/11 05:31:13;;;;;;;14.90;2.53;;;17.00;78.90;;;;;;10588391;27;20543;-50
2023/12/11 05:36:15;;;;;;;19.25;4.40;;;17.10;78.70;;;;;;10584626;27;20051;-50
2023/12/11 05:41:17;;;;;;;19.25;3.08;;;17.20;78.20;;;;;;10586365;27;20039;-51
2023/12/11 05:46:20;;;;;;;14.10;3.22;;;17.20;78.10;;;;;;10583173;27;20440;-48
2023/12/11 05:51:22;;;;;;;14.55;2.65;;;17.20;78.20;;;;;;10585601;27;20042;-50
2023/12/11 05:56:25;;;;;;;17.33;2.38;;;17.20;78.20;;;;;;10583710;27;20799;-52
2023/12/11 06:01:29;;;;;;;8.63;2.22;;;17.20;77.80;;;;;;10586317;27;20047;-51
2023/12/11 06:06:31;;;;;;;17.42;3.20;;;17.30;77.70;;;;;;10579500;27;20071;-51
2023/12/11 06:11:33;;;;;;;16.17;2.63;;;17.30;77.90;;;;;;10581546;27;20579;-53
2023/12/11 06:16:36;;;;;;;15.85;2.30;;;17.20;78.10;;;;;;10582821;27;20473;-50
2023/12/11 06:21:40;;;;;;;14.00;2.58;;;17.20;78.50;;;;;;10578482;27;20496;-51
2023/12/11 06:26:43;;;;;;;13.73;3.22;;;17.20;78.50;;;;;;10581498;27;20391;-50
2023/12/11 06:31:46;;;;;;;14.60;2.40;;;17.20;78.40;;;;;;10580359;27;20096;-52
2023/12/11 06:36:50;;;;;;;17.63;3.00;;;17.20;78.60;;;;;;10579863;27;20081;-49
2023/12/11 06:41:52;;;;;;;13.52;2.58;;;17.20;78.80;;;;;;10581472;27;20047;-53
2023/12/11 06:46:55;;;;;;;;;;;17.20;78.80;;;;;;10576143;27;20105;-50
2023/12/11 06:51:58;;;;;;;10.77;2.38;;;17.20;78.80;;;;;;10575586;27;20023;-53
2023/12/11 06:57:00;;;;;;;13.70;2.70;;;17.20;78.80;;;;;;10574836;27;20042;-50
2023/12/11 07:02:04;;;;;;;8.55;2.17;;;17.30;78.50;;;;;;10577838;27;20850;-50
2023/12/11 07:07:06;;;;;;;10.65;2.15;;;17.30;78.30;;;;;;10578347;27;20055;-52
2023/12/11 07:12:09;;;;;;;9.50;2.22;;;17.30;78.20;;;;;;10577045;27;20466;-52
2023/12/11 07:17:15;;;;;;;10.75;2.00;;;17.40;78.10;;;;;;10579675;27;20058;-51
2023/12/11 07:22:17;;;;;;;9.48;2.63;;;17.40;78.00;;;;;;10581039;27;20697;-51
2023/12/11 07:27:19;;;;;;;12.20;2.50;;;17.40;77.80;;;;;;10577239;27;20051;-50
2023/12/11 07:32:22;;;;;;;9.90;1.83;;;17.40;77.70;;;;;;10578973;27;20051;-49
2023/12/11 07:37:28;;;;;;;8.30;1.95;;;17.50;77.40;;;;;;10578971;27;20062;-50
2023/12/11 07:42:32;;;;;;;10.55;2.35;;;17.50;77.50;;;;;;10577075;27;20051;-51
2023/12/11 07:47:37;;;;;;;11.15;2.03;;;17.40;77.50;;;;;;10581893;27;20047;-52
2023/12/11 07:52:41;;;;;;;9.75;2.10;;;17.40;77.80;;;;;;10578773;27;20442;-51
2023/12/11 07:57:43;;;;;;;9.55;2.38;;;17.40;77.90;;;;;;10576515;27;20709;-53
2023/12/11 08:02:47;;;;;;;13.10;2.30;;;17.40;77.80;;;;;;10580076;27;20767;-54
2023/12/11 08:07:49;;;;;;;9.80;2.72;;;17.40;77.90;;;;;;10580407;27;20140;-51
2023/12/11 08:12:52;;;;;;;8.68;2.00;;;17.40;77.80;;;;;;10580390;27;20047;-49
2023/12/11 08:17:55;;;;;;;12.20;2.38;;;17.30;78.00;;;;;;10580431;28;20093;-49
2023/12/11 08:22:57;;;;;;;7.00;1.60;;;17.40;78.10;;;;;;10578856;28;20047;-50
2023/12/11 08:27:59;;;;;;;6.13;1.60;;;17.40;78.00;;;;;;10582214;28;20736;-50
2023/12/11 08:33:03;;;;;;;7.47;1.73;;;17.60;77.70;;;;;;10577286;28;20501;-51
2023/12/11 08:38:05;;;;;;;9.18;1.92;;;17.60;77.60;;;;;;10578733;28;20498;-49
2023/12/11 08:43:08;;;;;;;9.75;1.67;;;17.50;77.60;;;;;;10580099;28;20035;-49
2023/12/11 08:48:11;;;;;;;;;;;17.50;77.70;;;;;;10581703;28;20442;-52
2023/12/11 08:53:14;;;;;;;20.23;3.97;;;17.40;77.80;;;;;;10578816;28;19927;-50
2023/12/11 08:58:16;;;;;;;11.65;2.30;;;17.40;77.80;;;;;;10578687;27;20761;-50
2023/12/11 09:03:20;;;;;;;6.25;2.13;;;17.40;77.80;;;;;;10585859;27;21063;-51
2023/12/11 09:08:22;;;;;;;6.10;1.98;;;17.40;77.80;;;;;;10585378;27;20055;-48
2023/12/11 09:13:26;;;;;;;11.63;2.28;;;17.50;77.80;;;;;;10585245;27;20062;-50
2023/12/11 09:18:29;;;;;;;6.82;1.80;;;17.50;77.80;;;;;;10584147;27;20047;-49
2023/12/11 09:23:31;;;;;;;6.65;1.55;;;17.50;77.80;;;;;;10582008;27;20047;-51
2023/12/11 09:28:33;;;;;;;12.23;2.30;;;17.40;78.00;;;;;;10588289;27;20043;-49
2023/12/11 09:33:40;;;;;;;4.38;1.60;;;17.40;77.90;;;;;;10583869;27;20043;-51
2023/12/11 09:38:42;;;;;;;5.03;1.50;;;17.50;77.80;;;;;;10584487;27;20069;-52
2023/12/11 09:43:46;;;;;;;6.05;1.73;;;17.50;78.00;;;;;;10583714;27;20044;-51
2023/12/11 09:48:49;;;;;;;5.05;1.67;;;17.50;77.80;;;;;;10584772;27;20071;-50
2023/12/11 09:53:55;;;;;;;10.45;1.90;;;17.40;77.80;;;;;;10585408;27;20208;-49
2023/12/11 09:58:58;;;;;;;5.38;1.55;;;17.40;78.30;;;;;;10585125;27;20085;-48
2023/12/11 10:04:01;;;;;;;8.90;1.90;;;17.40;78.00;;;;;;10579685;27;20042;-52
2023/12/11 10:09:04;;;;;;;5.70;1.75;;;17.40;77.90;;;;;;10585100;27;20059;-49
2023/12/11 10:14:13;;;;;;;16.23;2.38;;;17.40;77.90;;;;;;10585569;27;20606;-50
2023/12/11 10:19:19;;;;;;;7.60;1.73;;;17.40;78.20;;;;;;10581136;27;20063;-50
2023/12/11 10:24:22;;;;;;;8.10;2.28;;;17.50;78.00;;;;;;10582834;27;20047;-50
2023/12/11 10:29:26;;;;;;;5.57;1.73;;;17.40;78.00;;;;;;10581451;27;20043;-50
2023/12/11 10:34:42;;;;;;;12.68;1.83;;;17.50;78.00;;;;;;10582530;27;20054;-49
2023/12/11 10:39:52;;;;;;;6.90;1.70;;;17.50;77.90;;;;;;10582771;27;20870;-49
2023/12/11 10:44:56;;;;;;;7.13;1.75;;;17.50;78.00;;;;;;10583669;27;20115;-50
2023/12/11 10:50:02;;;;;;;6.68;1.55;;;17.50;78.00;;;;;;10584927;27;20468;-50
2023/12/11 10:55:05;;;;;;;7.53;2.30;;;17.50;78.00;;;;;;10581416;27;20051;-49
2023/12/11 11:00:13;;;;;;;5.40;1.17;;;17.40;78.10;;;;;;10580885;27;20055;-49
2023/12/11 11:05:17;;;;;;;5.55;1.50;;;17.40;78.10;;;;;;10584113;27;20414;-50
2023/12/11 11:10:21;;;;;;;7.55;1.35;;;17.50;78.00;;;;;;10583751;27;20789;-49
2023/12/11 11:15:24;;;;;;;5.35;1.42;;;17.40;77.90;;;;;;10582590;27;20873;-48
2023/12/11 11:20:28;;;;;;;5.32;1.52;;;17.40;78.70;;;;;;10579482;27;20054;-48
2023/12/11 11:25:31;;;;;;;5.25;1.50;;;17.40;78.10;;;;;;10580418;27;20047;-50
2023/12/11 11:30:50;;;;;;;4.28;1.35;;;17.40;78.30;;;;;;10581217;27;20050;-48
2023/12/11 11:35:56;;;;;;;6.18;1.30;;;17.40;78.50;;;;;;10577606;27;20055;-50
2023/12/11 11:40:58;;;;;;;6.63;1.55;;;17.40;78.40;;;;;;10575148;27;20436;-48
2023/12/11 11:46:01;;;;;;;5.18;1.52;;;17.40;78.80;;;;;;10580578;27;20517;-49
2023/12/11 11:51:05;;;;;;;8.15;1.50;;;17.40;78.80;;;;;;10581031;27;20116;-50
2023/12/11 11:56:08;;;;;;;6.28;1.75;;;17.40;78.80;;;;;;10581158;27;21334;-49
2023/12/11 12:01:11;;;;;;;4.70;1.48;;;17.40;78.90;;;;;;10585524;27;20047;-50
2023/12/11 12:06:16;;;;;;;3.60;1.20;;;17.30;79.10;;;;;;10579754;27;20050;-50
2023/12/11 12:11:19;;;;;;;8.95;1.90;;;17.40;78.90;;;;;;10576373;27;20055;-51
2023/12/11 12:16:28;;;;;;;9.10;1.92;;;17.30;78.90;;;;;;10582600;27;20051;-51
2023/12/11 12:21:46;;;;;;;13.80;1.88;;;17.30;79.10;;;;;;10578165;28;20138;-48
2023/12/11 12:26:51;;;;;;;5.40;1.60;;;17.30;79.20;;;;;;10575495;28;20250;-49
2023/12/11 12:31:54;;;;;;;4.60;2.03;;;17.30;79.10;;;;;;10582303;27;20053;-48
2023/12/11 12:36:58;;;;;;;9.15;1.60;;;17.20;79.20;;;;;;10565813;27;20097;-46
2023/12/11 12:42:00;;;;;;;12.75;2.70;;;17.30;79.20;;;;;;10581693;27;20532;-49
2023/12/11 12:47:02;;;;;;;;;;;17.40;79.20;;;;;;10586795;27;20046;-49
2023/12/11 12:52:06;;;;;;;5.60;1.45;;;17.40;79.00;;;;;;10586455;27;19991;-47
2023/12/11 12:57:08;;;;;;;6.85;1.95;;;17.40;79.10;;;;;;10596254;27;20046;-49
2023/12/11 13:02:13;;;;;;;8.67;2.20;;;17.40;79.10;;;;;;10589261;27;20054;-48
2023/12/11 13:07:17;;;;;;;8.13;1.60;;;17.40;79.10;;;;;;10586728;27;20417;-48
2023/12/11 13:12:20;;;;;;;11.15;2.30;;;17.40;79.00;;;;;;10588945;27;20155;-49
2023/12/11 13:17:23;;;;;;;16.95;2.47;;;17.40;79.10;;;;;;10588249;27;20047;-48
2023/12/11 13:22:26;;;;;;;7.75;2.00;;;17.40;79.00;;;;;;10590778;27;20899;-48
2023/12/11 13:27:29;;;;;;;8.57;1.95;;;17.40;78.90;;;;;;10585514;27;20066;-48
2023/12/11 13:32:31;;;;;;;9.13;2.13;;;17.40;78.90;;;;;;10585667;27;20412;-46
2023/12/11 13:37:35;;;;;;;9.10;1.52;;;17.40;79.00;;;;;;10583377;27;20110;-47
2023/12/11 13:42:37;;;;;;;4.80;1.60;;;17.50;78.90;;;;;;10565252;27;20051;-47
2023/12/11 13:47:39;;;;;;;9.97;2.10;;;17.60;78.50;;;;;;10581947;27;20391;-47
2023/12/11 13:52:42;;;;;;;8.77;2.45;;;17.70;78.20;;;;;;10586196;27;20518;-49
2023/12/11 13:57:44;;;;;;;9.02;1.98;;;17.90;78.00;;;;;;10582961;27;20134;-48
2023/12/11 14:02:47;;;;;;;6.85;1.88;;;17.90;77.70;;;;;;10581478;27;20054;-48
2023/12/11 14:07:52;;;;;;;5.15;1.73;;;18.00;77.60;;;;;;10585031;27;20055;-48
2023/12/11 14:12:54;;;;;;;8.82;2.10;;;18.00;77.60;;;;;;10583013;27;20054;-48
2023/12/11 14:17:56;;;;;;;8.73;2.30;;;18.00;77.50;;;;;;10561693;27;20101;-47
2023/12/11 14:23:00;;;;;;;13.95;2.17;;;18.10;77.50;;;;;;10582601;27;20054;-49
2023/12/11 14:28:03;;;;;;;9.13;2.20;;;18.10;77.40;;;;;;10583098;27;20039;-51
2023/12/11 14:33:07;;;;;;;8.07;2.50;;;18.10;77.50;;;;;;10581346;27;20047;-49
2023/12/11 14:38:10;;;;;;;6.68;2.17;;;18.10;77.50;;;;;;10582218;27;20058;-49
2023/12/11 14:43:13;;;;;;;6.65;1.98;;;18.10;77.40;;;;;;10585220;27;20055;-51
2023/12/11 14:48:15;;;;;;;11.23;1.67;;;18.10;77.30;;;;;;10582907;27;20047;-49
2023/12/11 14:53:18;;;;;;;9.50;2.22;;;18.10;77.30;;;;;;10579801;27;20043;-52
2023/12/11 14:58:20;;;;;;;8.68;2.45;;;18.10;77.10;;;;;;10580230;27;20050;-53
2023/12/11 15:03:22;;;;;;;7.20;1.95;;;18.20;77.10;;;;;;10585535;27;20880;-50
2023/12/11 15:08:25;;;;;;;10.35;1.65;;;18.10;76.90;;;;;;10578331;27;20058;-50
2023/12/11 15:13:27;;;;;;;7.93;1.90;;;18.10;77.00;;;;;;10578170;27;20569;-50
2023/12/11 15:18:29;;;;;;;6.80;1.77;;;18.20;76.80;;;;;;10581477;27;20074;-50
2023/12/11 15:23:33;;;;;;;6.35;2.53;;;18.10;76.70;;;;;;10583019;27;20047;-49
2023/12/11 15:28:38;;;;;;;7.63;1.80;;;18.10;76.60;;;;;;10582329;27;20058;-48
2023/12/11 15:33:41;;;;;;;9.38;2.20;;;18.10;76.80;;;;;;10579529;27;20375;-48
2023/12/11 15:38:45;;;;;;;5.15;1.70;;;18.10;76.80;;;;;;10584127;27;20054;-48
2023/12/11 15:43:47;;;;;;;9.82;1.92;;;18.20;76.80;;;;;;10574657;27;20081;-49
2023/12/11 15:48:49;;;;;;;6.35;1.90;;;18.20;76.60;;;;;;10578777;27;20531;-48
2023/12/11 15:53:53;;;;;;;6.05;2.03;;;18.10;76.70;;;;;;10581694;27;20390;-49
2023/12/11 15:58:57;;;;;;;6.45;1.80;;;18.10;76.70;;;;;;10579186;27;20077;-48
2023/12/11 16:03:59;;;;;;;9.45;2.00;;;18.10;76.60;;;;;;10580438;27;20508;-50
2023/12/11 16:09:03;;;;;;;4.25;1.80;;;18.20;76.70;;;;;;10580916;27;20058;-50
2023/12/11 16:14:05;;;;;;;9.35;2.20;;;18.10;76.50;;;;;;10581116;27;20051;-49
2023/12/11 16:19:07;;;;;;;9.40;3.10;;;18.00;76.90;;;;;;10589159;27;20542;-50
2023/12/11 16:24:10;;;;;;;5.80;1.70;;;18.00;76.90;;;;;;10579947;27;20225;-47
2023/12/11 16:29:12;;;;;;;7.80;1.95;;;18.00;77.00;;;;;;10582154;28;20427;-49
2023/12/11 16:34:14;;;;;;;4.05;1.52;;;18.10;76.70;;;;;;10580728;28;20081;-50
2023/12/11 16:39:19;;;;;;;4.82;1.98;;;18.20;76.60;;;;;;10579988;28;20224;-50
2023/12/11 16:44:21;;;;;;;8.68;1.98;;;18.20;76.50;;;;;;10578853;28;20062;-49
2023/12/11 16:49:23;;;;;;;13.18;2.50;;;18.20;76.50;;;;;;10579954;28;20065;-51
2023/12/11 16:54:27;;;;;;;4.97;1.40;;;18.20;76.40;;;;;;10580176;28;20053;-50
2023/12/11 16:59:30;;;;;;;7.57;2.13;;;18.20;76.40;;;;;;10576082;28;20058;-50
2023/12/11 17:04:32;;;;;;;6.63;1.88;;;18.20;76.50;;;;;;10573194;28;20047;-49
2023/12/11 17:09:37;;;;;;;7.00;1.80;;;18.30;76.40;;;;;;10578371;28;20070;-50
2023/12/11 17:14:40;;;;;;;5.47;1.52;;;18.20;76.50;;;;;;10575843;27;20047;-52
2023/12/11 17:19:42;;;;;;;11.00;3.08;;;18.20;76.50;;;;;;10580752;27;20092;-49
2023/12/11 17:24:45;;;;;;;7.10;2.08;;;18.10;76.80;;;;;;10580904;27;20055;-49
2023/12/11 17:29:50;;;;;;;5.25;2.03;;;18.00;77.00;;;;;;10584945;27;20131;-52
2023/12/11 17:34:51;;;;;;;11.05;2.30;;;18.10;76.80;;;;;;10585467;27;20510;-49
2023/12/11 17:39:56;;;;;;;8.45;1.65;;;18.10;76.70;;;;;;10582488;27;20058;-51
2023/12/11 17:44:58;;;;;;;8.52;2.33;;;18.20;76.70;;;;;;10581932;27;20443;-49
2023/12/11 17:50:00;;;;;;;7.90;2.28;;;18.20;76.70;;;;;;10582176;27;20724;-49
2023/12/11 17:55:06;;;;;;;9.15;1.95;;;18.20;76.70;;;;;;10585894;27;20043;-51
2023/12/11 18:00:09;;;;;;;6.55;2.20;;;18.20;76.80;;;;;;10587946;27;20046;-49
2023/12/11 18:05:11;;;;;;;5.75;1.80;;;18.10;77.00;;;;;;10586936;27;20043;-48
2023/12/11 18:10:19;;;;;;;6.28;2.17;;;17.90;77.20;;;;;;10581463;27;20055;-48
2023/12/11 18:15:21;;;;;;;7.40;2.30;;;17.80;78.00;;;;;;10586990;27;20047;-49
2023/12/11 18:20:23;;;;;;;4.05;1.70;;;17.70;77.70;;;;;;10587017;27;20089;-48
2023/12/11 18:25:26;;;;;;;8.25;1.50;;;17.70;77.80;;;;;;10587849;27;20096;-46
2023/12/11 18:30:28;;;;;;;3.92;1.25;;;17.70;77.80;;;;;;10585633;27;20144;-50
2023/12/11 18:35:30;;;;;;;7.13;1.93;;;17.70;77.60;;;;;;10583027;27;20043;-48
2023/12/11 18:40:33;;;;;;;7.05;1.60;;;17.60;77.80;;;;;;10583799;27;20062;-47
2023/12/11 18:45:36;;;;;;;5.13;1.50;;;17.60;78.10;;;;;;10581409;27;20047;-54
2023/12/11 18:50:37;;;;;;;5.22;1.50;;;17.60;78.00;;;;;;10586621;27;20047;-49
2023/12/11 18:55:41;;;;;;;3.88;1.27;;;17.50;78.10;;;;;;10580358;27;20752;-48
